createdAt,value
2022-10-18T00:01:47.050Z,91.99
2022-10-18T00:04:16.778Z,93.30
2022-10-18T00:06:46.705Z,91.97
2022-10-18T00:09:17.971Z,92.53
2022-10-18T00:11:47.452Z,95.27
2022-10-18T00:14:17.298Z,93.18
2022-10-18T00:16:47.300Z,92.01
2022-10-18T00:19:17.252Z,94.47
2022-10-18T00:21:47.125Z,92.06
2022-10-18T00:24:17.937Z,91.24
2022-10-18T00:26:47.428Z,90.88
2022-10-18T00:29:17.749Z,88.67
2022-10-18T00:31:47.109Z,90.98
2022-10-18T00:34:17.970Z,92.84
2022-10-18T00:36:47.618Z,89.52
2022-10-18T00:39:20.701Z,93.40
2022-10-18T00:41:50.578Z,91.17
2022-10-18T00:44:57.600Z,88.18
2022-10-18T00:47:27.564Z,89.26
2022-10-18T00:49:59.497Z,90.82
2022-10-18T00:52:34.057Z,91.33
2022-10-18T00:55:06.501Z,89.76
2022-10-18T00:57:36.766Z,93.89
2022-10-18T01:00:09.983Z,92.47
2022-10-18T01:02:41.278Z,94.22
2022-10-18T01:05:14.587Z,91.95
2022-10-18T01:08:00.744Z,88.28
2022-10-18T01:10:36.219Z,91.39
2022-10-18T01:13:19.030Z,90.36
2022-10-18T01:18:37.283Z,86.68
2022-10-18T01:21:25.650Z,88.46
2022-10-18T01:24:40.192Z,88.32
2022-10-18T01:27:41.985Z,88.24
2022-10-18T01:30:43.011Z,90.28
2022-10-18T01:33:21.409Z,86.60
2022-10-18T01:35:54.448Z,88.26
2022-10-18T01:38:26.803Z,88.36
2022-10-18T01:40:57.411Z,89.13
2022-10-18T01:43:27.794Z,88.91
2022-10-18T01:46:00.090Z,90.06
2022-10-18T01:48:30.447Z,88.94
2022-10-18T01:51:00.383Z,89.27
2022-10-18T01:53:32.460Z,87.87
2022-10-18T01:56:24.833Z,90.42
2022-10-18T01:59:12.259Z,89.80
2022-10-18T02:01:51.701Z,89.95
2022-10-18T02:04:27.399Z,90.16
2022-10-18T02:07:02.318Z,93.68
2022-10-18T02:09:35.675Z,89.85
2022-10-18T02:12:05.680Z,88.66
2022-10-18T02:14:35.714Z,88.46
2022-10-18T02:17:09.795Z,91.91
2022-10-18T02:19:42.074Z,89.00
2022-10-18T02:22:12.921Z,88.01
2022-10-18T02:24:46.550Z,88.37
2022-10-18T02:27:15.914Z,89.58
2022-10-18T02:29:46.037Z,86.30
2022-10-18T02:32:21.543Z,85.28
2022-10-18T02:34:55.327Z,85.66
2022-10-18T02:40:00.735Z,87.50
2022-10-18T02:42:35.928Z,86.96
2022-10-18T02:45:06.439Z,87.95
2022-10-18T02:47:37.255Z,87.93
2022-10-18T02:50:07.391Z,85.93
2022-10-18T02:52:36.846Z,85.62
2022-10-18T02:55:06.999Z,86.65
2022-10-18T02:57:36.852Z,87.12
2022-10-18T03:00:07.143Z,87.35
2022-10-18T03:02:38.147Z,84.18
2022-10-18T03:05:08.179Z,86.64
2022-10-18T03:07:37.564Z,87.55
2022-10-18T03:10:08.388Z,86.86
2022-10-18T03:12:37.721Z,86.45
2022-10-18T03:15:08.323Z,86.47
2022-10-18T03:17:39.293Z,90.47
2022-10-18T03:20:23.789Z,92.14
2022-10-18T03:22:53.324Z,86.46
2022-10-18T03:25:22.701Z,84.91
2022-10-18T03:27:52.519Z,83.89
2022-10-18T03:30:22.267Z,84.49
2022-10-18T03:32:54.350Z,86.23
2022-10-18T03:35:23.669Z,85.69
2022-10-18T03:37:52.928Z,88.27
2022-10-18T03:40:22.377Z,87.34
2022-10-18T03:42:51.920Z,87.56
2022-10-18T03:45:21.346Z,85.44
2022-10-18T03:47:52.235Z,86.25
2022-10-18T03:50:21.366Z,86.19
2022-10-18T03:52:50.686Z,85.26
2022-10-18T03:55:19.885Z,84.04
2022-10-18T03:57:49.022Z,85.13
2022-10-18T04:00:19.523Z,85.48
2022-10-18T04:02:52.006Z,85.56
2022-10-18T04:05:30.865Z,86.06
2022-10-18T04:08:00.251Z,84.92
2022-10-18T04:10:29.840Z,84.84
2022-10-18T04:12:59.091Z,86.52
2022-10-18T04:15:28.544Z,83.98
2022-10-18T04:17:58.287Z,87.10
2022-10-18T04:20:29.259Z,84.58
2022-10-18T04:22:58.671Z,85.99
2022-10-18T04:25:28.823Z,86.27
2022-10-18T04:27:57.970Z,86.49
2022-10-18T04:30:27.637Z,85.22
2022-10-18T04:32:56.978Z,87.37
2022-10-18T04:35:28.416Z,88.34
2022-10-18T04:37:57.912Z,84.82
2022-10-18T04:40:27.118Z,87.18
2022-10-18T04:42:56.685Z,85.62
2022-10-18T04:45:27.355Z,84.79
2022-10-18T04:47:56.564Z,85.30
2022-10-18T04:50:27.450Z,84.13
2022-10-18T04:52:57.296Z,83.55
2022-10-18T04:55:27.355Z,85.67
2022-10-18T04:57:56.759Z,85.34
2022-10-18T05:00:26.023Z,88.11
2022-10-18T05:02:58.786Z,84.63
2022-10-18T05:05:49.911Z,87.68
2022-10-18T05:08:19.477Z,86.44
2022-10-18T05:10:51.943Z,84.70
2022-10-18T05:13:22.910Z,86.50
2022-10-18T05:15:52.723Z,86.85
2022-10-18T05:18:22.793Z,87.22
2022-10-18T05:20:53.420Z,86.12
2022-10-18T05:23:22.845Z,84.63
2022-10-18T05:25:52.159Z,86.14
2022-10-18T05:28:38.754Z,87.59
2022-10-18T05:31:10.491Z,85.70
2022-10-18T05:33:40.052Z,85.29
2022-10-18T05:36:11.518Z,85.31
2022-10-18T05:38:43.559Z,84.21
2022-10-18T05:41:14.327Z,89.26
2022-10-18T05:43:43.941Z,86.20
2022-10-18T05:46:15.331Z,86.96
2022-10-18T05:48:45.685Z,85.72
2022-10-18T05:51:16.439Z,86.29
2022-10-18T05:53:45.887Z,84.50
2022-10-18T05:56:15.579Z,83.33
2022-10-18T05:58:45.427Z,85.26
2022-10-18T06:01:15.323Z,86.94
2022-10-18T06:03:44.593Z,84.93
2022-10-18T06:06:16.281Z,88.63
2022-10-18T06:08:46.642Z,86.14
2022-10-18T06:11:17.985Z,86.41
2022-10-18T06:13:49.657Z,87.10
2022-10-18T06:16:20.382Z,87.95
2022-10-18T06:18:50.590Z,90.07
2022-10-18T06:21:23.683Z,91.06
2022-10-18T06:23:53.798Z,89.73
2022-10-18T06:26:23.571Z,86.39
2022-10-18T06:28:52.942Z,86.28
2022-10-18T06:31:22.989Z,87.44
2022-10-18T06:33:52.746Z,88.25
2022-10-18T06:36:23.675Z,91.89
2022-10-18T06:38:52.969Z,88.86
2022-10-18T06:41:22.242Z,89.43
2022-10-18T06:43:52.018Z,88.19
2022-10-18T06:46:22.633Z,91.34
2022-10-18T06:48:54.423Z,92.14
2022-10-18T06:51:27.748Z,91.88
2022-10-18T06:54:16.955Z,90.68
2022-10-18T06:56:46.712Z,94.28
2022-10-18T06:59:16.258Z,91.02
2022-10-18T07:01:45.888Z,92.84
2022-10-18T07:04:16.590Z,93.26
2022-10-18T07:06:47.537Z,90.86
2022-10-18T07:09:17.112Z,91.45
2022-10-18T07:11:46.567Z,92.92
2022-10-18T07:14:16.551Z,91.95
2022-10-18T07:16:45.988Z,92.33
2022-10-18T07:19:16.428Z,93.35
2022-10-18T07:21:47.240Z,93.71
2022-10-18T07:24:16.769Z,93.04
2022-10-18T07:26:46.441Z,93.35
2022-10-18T07:29:16.006Z,93.27
2022-10-18T07:31:45.261Z,93.21
2022-10-18T07:34:15.649Z,96.95
2022-10-18T07:36:46.401Z,98.79
2022-10-18T07:39:15.785Z,96.43
2022-10-18T07:41:45.051Z,93.19
2022-10-18T07:44:14.582Z,96.21
2022-10-18T07:46:44.053Z,92.87
2022-10-18T07:49:13.874Z,94.07
2022-10-18T07:51:45.528Z,95.98
2022-10-18T07:54:16.774Z,96.04
2022-10-18T07:56:47.284Z,96.76
2022-10-18T07:59:16.897Z,96.06
2022-10-18T08:01:46.220Z,97.20
2022-10-18T08:04:16.600Z,94.75
2022-10-18T08:06:46.082Z,96.72
2022-10-18T08:09:17.308Z,98.90
2022-10-18T08:11:46.698Z,97.69
2022-10-18T08:14:15.870Z,95.89
2022-10-18T08:16:45.063Z,96.30
2022-10-18T08:19:14.500Z,95.50
2022-10-18T08:21:43.788Z,96.83
2022-10-18T08:24:13.362Z,96.93
2022-10-18T08:26:47.720Z,98.89
2022-10-18T08:29:23.277Z,99.74
2022-10-18T08:31:53.516Z,97.92
2022-10-18T08:34:22.943Z,100.00
2022-10-18T08:36:52.587Z,97.84
2022-10-18T08:39:22.418Z,99.79
2022-10-18T08:42:10.339Z,98.16
2022-10-18T08:44:45.928Z,98.07
2022-10-18T08:47:18.375Z,98.90
2022-10-18T08:49:50.830Z,98.01
2022-10-18T08:52:30.638Z,97.45
2022-10-18T08:55:03.789Z,98.12
2022-10-18T08:57:35.521Z,97.75
2022-10-18T09:00:10.003Z,98.42
2022-10-18T09:02:47.933Z,99.33
2022-10-18T09:05:24.118Z,99.54
2022-10-18T09:08:39.220Z,100.00
2022-10-18T09:11:17.033Z,99.15
2022-10-18T09:14:10.869Z,97.57
2022-10-18T09:16:45.506Z,97.60
2022-10-18T09:19:23.885Z,95.52
2022-10-18T09:21:55.025Z,97.53
2022-10-18T09:24:29.430Z,100.00
2022-10-18T09:27:02.728Z,98.42
2022-10-18T09:29:42.173Z,99.45
2022-10-18T09:32:24.313Z,98.09
2022-10-18T09:34:55.200Z,98.01
2022-10-18T09:37:25.815Z,97.61
2022-10-18T09:40:01.514Z,92.58
2022-10-18T09:42:36.289Z,91.71
2022-10-18T09:45:15.907Z,88.09
2022-10-18T09:47:49.363Z,91.97
2022-10-18T09:50:25.399Z,87.62
2022-10-18T09:53:03.115Z,83.35
2022-10-18T09:55:35.987Z,84.52
2022-10-18T09:58:08.356Z,87.23
2022-10-18T10:00:43.438Z,81.40
2022-10-18T10:03:14.830Z,84.53
2022-10-18T10:05:44.702Z,79.83
2022-10-18T10:08:14.234Z,76.81
2022-10-18T10:10:48.869Z,75.16
2022-10-18T10:13:23.097Z,75.48
2022-10-18T10:15:56.867Z,76.48
2022-10-18T10:18:28.306Z,74.54
2022-10-18T10:21:00.290Z,71.31
2022-10-18T10:23:32.132Z,74.88
2022-10-18T10:26:03.588Z,75.09
2022-10-18T10:28:36.830Z,75.10
2022-10-18T10:31:27.664Z,70.41
2022-10-18T10:34:02.737Z,72.80
2022-10-18T10:36:33.703Z,71.13
2022-10-18T10:39:08.150Z,74.88
2022-10-18T10:41:37.955Z,69.27
2022-10-18T10:44:16.067Z,72.76
2022-10-18T10:46:46.860Z,70.53
2022-10-18T10:52:27.329Z,66.78
2022-10-18T10:55:11.352Z,66.21
2022-10-18T10:57:53.166Z,65.71
2022-10-18T11:00:40.656Z,66.75
2022-10-18T11:03:28.658Z,65.45
2022-10-18T11:06:01.163Z,62.58
2022-10-18T11:08:34.440Z,61.52
2022-10-18T11:11:10.991Z,60.29
2022-10-18T11:13:53.303Z,59.38
2022-10-18T11:16:35.523Z,60.06
2022-10-18T11:19:28.938Z,58.04
2022-10-18T11:21:59.063Z,57.76
2022-10-18T11:24:31.270Z,58.29
2022-10-18T11:27:06.089Z,59.26
2022-10-18T11:29:58.714Z,57.90
2022-10-18T11:32:35.558Z,59.77
2022-10-18T11:35:16.465Z,58.27
2022-10-18T11:37:59.246Z,58.14
2022-10-18T11:40:42.486Z,57.16
2022-10-18T11:43:18.355Z,56.58
2022-10-18T11:45:56.436Z,56.99
2022-10-18T11:48:42.010Z,58.13
2022-10-18T11:51:18.795Z,56.38
2022-10-18T11:54:07.342Z,54.76
2022-10-18T11:56:43.908Z,53.56
2022-10-18T11:59:26.091Z,54.56
2022-10-18T12:02:04.362Z,51.34
2022-10-18T12:04:45.090Z,52.10
2022-10-18T12:07:32.500Z,53.50
2022-10-18T12:10:03.114Z,51.72
2022-10-18T12:12:34.887Z,51.61
2022-10-18T12:15:08.965Z,49.35
2022-10-18T12:17:51.113Z,51.70
2022-10-18T12:20:25.358Z,51.83
2022-10-18T12:23:01.355Z,50.74
2022-10-18T12:25:31.986Z,50.25
2022-10-18T12:28:07.541Z,49.18
2022-10-18T12:30:45.530Z,50.25
2022-10-18T12:33:28.112Z,49.92
2022-10-18T12:36:04.217Z,45.94
2022-10-18T12:38:35.690Z,49.40
2022-10-18T12:41:05.425Z,49.59
2022-10-18T12:43:37.874Z,49.37
2022-10-18T12:46:13.608Z,48.62
2022-10-18T12:48:45.831Z,50.38
2022-10-18T12:51:17.304Z,48.27
2022-10-18T12:53:49.448Z,50.03
2022-10-18T12:56:42.043Z,50.46
2022-10-18T12:59:47.511Z,50.97
2022-10-18T13:02:26.889Z,50.72
2022-10-18T13:07:43.186Z,49.87
2022-10-18T13:10:45.479Z,48.90
2022-10-18T13:13:40.244Z,48.56
2022-10-18T13:16:21.800Z,49.94
2022-10-18T13:18:55.477Z,50.11
2022-10-18T13:21:34.896Z,50.18
2022-10-18T13:24:15.963Z,51.19
2022-10-18T13:27:04.024Z,50.44
2022-10-18T13:30:01.875Z,50.94
2022-10-18T13:32:36.459Z,51.25
2022-10-18T13:35:23.186Z,50.51
2022-10-18T13:38:00.044Z,51.01
2022-10-18T13:40:29.375Z,52.03
2022-10-18T13:43:02.828Z,52.66
2022-10-18T13:45:54.483Z,52.92
2022-10-18T13:48:46.552Z,52.38
2022-10-18T13:51:45.777Z,52.96
2022-10-18T13:54:29.451Z,52.75
2022-10-18T13:57:12.132Z,53.76
2022-10-18T14:00:05.743Z,51.08
2022-10-18T14:02:59.894Z,53.57
2022-10-18T14:05:50.631Z,53.36
2022-10-18T14:08:23.886Z,54.16
2022-10-18T14:11:03.262Z,55.00
2022-10-18T14:13:48.562Z,54.65
2022-10-18T14:16:32.240Z,55.14
2022-10-18T14:19:09.682Z,56.29
2022-10-18T14:21:41.346Z,54.04
2022-10-18T14:24:19.464Z,56.81
2022-10-18T14:26:49.312Z,56.35
2022-10-18T14:29:20.351Z,57.33
2022-10-18T14:31:56.559Z,56.82
2022-10-18T14:34:26.071Z,57.11
2022-10-18T14:36:55.483Z,57.00
2022-10-18T14:39:29.050Z,57.27
2022-10-18T14:42:00.388Z,57.72
2022-10-18T14:44:31.526Z,61.36
2022-10-18T14:47:03.931Z,59.32
2022-10-18T14:49:33.313Z,59.18
2022-10-18T14:52:02.849Z,59.13
2022-10-18T14:54:33.785Z,58.55
2022-10-18T14:57:04.344Z,59.27
2022-10-18T14:59:38.967Z,58.94
2022-10-18T15:02:18.021Z,57.87
2022-10-18T15:04:48.622Z,58.79
2022-10-18T15:07:18.977Z,59.99
2022-10-18T15:09:49.161Z,60.83
2022-10-18T15:12:19.258Z,58.04
2022-10-18T15:14:49.290Z,61.64
2022-10-18T15:17:25.360Z,61.72
2022-10-18T15:20:01.937Z,63.84
2022-10-18T15:22:35.579Z,64.48
2022-10-18T15:25:19.238Z,64.67
2022-10-18T15:27:50.260Z,62.98
2022-10-18T15:30:27.878Z,64.42
2022-10-18T15:33:00.394Z,67.35
2022-10-18T15:35:31.132Z,69.05
2022-10-18T15:38:03.573Z,71.14
2022-10-18T15:40:38.900Z,72.42
2022-10-18T15:43:36.416Z,74.46
2022-10-18T15:46:07.310Z,75.11
2022-10-18T15:48:40.494Z,75.94
2022-10-18T15:51:11.262Z,77.50
2022-10-18T15:53:45.842Z,77.98
2022-10-18T15:56:29.597Z,79.12
2022-10-18T15:59:00.166Z,79.78
2022-10-18T16:01:38.363Z,80.49
2022-10-18T16:04:12.527Z,80.88
2022-10-18T16:06:42.061Z,81.57
2022-10-18T16:09:13.129Z,82.83
2022-10-18T16:11:42.541Z,83.02
2022-10-18T16:14:11.896Z,84.02
2022-10-18T16:16:41.809Z,84.61
2022-10-18T16:19:18.682Z,84.00
2022-10-18T16:21:47.929Z,85.10
2022-10-18T16:24:17.786Z,84.95
2022-10-18T16:26:47.026Z,85.51
2022-10-18T16:29:16.865Z,86.22
2022-10-18T16:31:46.754Z,86.52
2022-10-18T16:34:17.467Z,86.45
2022-10-18T16:36:47.412Z,87.87
2022-10-18T16:39:18.014Z,88.21
2022-10-18T16:41:48.180Z,88.30
2022-10-18T16:44:19.326Z,88.01
2022-10-18T16:46:52.382Z,89.07
2022-10-18T16:49:26.270Z,89.47
2022-10-18T16:51:57.375Z,89.83
2022-10-18T16:54:26.789Z,90.44
2022-10-18T16:56:55.983Z,90.17
2022-10-18T16:59:27.168Z,89.69
2022-10-18T17:01:56.634Z,89.49
2022-10-18T17:04:27.501Z,90.68
2022-10-18T17:06:59.923Z,90.35
2022-10-18T17:09:30.382Z,91.22
2022-10-18T17:11:59.662Z,91.14
2022-10-18T17:14:28.841Z,91.76
2022-10-18T17:16:59.485Z,91.71
2022-10-18T17:19:30.236Z,92.84
2022-10-18T17:22:02.536Z,92.43
2022-10-18T17:24:32.235Z,92.70
2022-10-18T17:27:01.409Z,93.90
2022-10-18T17:29:30.762Z,93.01
2022-10-18T17:32:01.185Z,92.96
2022-10-18T17:34:32.028Z,94.25
2022-10-18T17:37:02.824Z,94.03
2022-10-18T17:39:32.199Z,93.92
2022-10-18T17:42:02.106Z,94.25
2022-10-18T17:44:31.692Z,95.33
2022-10-18T17:47:01.065Z,93.63
2022-10-18T17:49:32.593Z,95.32
2022-10-18T17:52:06.104Z,95.23
2022-10-18T17:54:37.192Z,95.78
2022-10-18T17:57:06.517Z,95.59
2022-10-18T17:59:35.717Z,96.16
2022-10-18T18:02:05.192Z,96.38
2022-10-18T18:04:46.644Z,96.33
2022-10-18T18:07:16.249Z,96.90
2022-10-18T18:09:45.553Z,96.79
2022-10-18T18:12:16.536Z,97.97
2022-10-18T18:14:45.939Z,98.81
2022-10-18T18:17:24.783Z,97.63
2022-10-18T18:20:04.846Z,98.24
2022-10-18T18:22:36.909Z,100.00
2022-10-18T18:25:10.386Z,98.20
2022-10-18T18:27:40.213Z,97.53
2022-10-18T18:30:10.338Z,99.01
2022-10-18T18:32:40.187Z,97.55
2022-10-18T18:35:11.627Z,100.00
2022-10-18T18:37:41.304Z,97.38
2022-10-18T18:40:11.309Z,98.87
2022-10-18T18:42:40.957Z,96.93
2022-10-18T18:45:10.847Z,99.46
2022-10-18T18:47:41.048Z,97.22
2022-10-18T18:50:12.625Z,97.43
2022-10-18T18:52:42.133Z,98.15
2022-10-18T18:55:12.522Z,99.94
2022-10-18T18:57:43.108Z,97.84
2022-10-18T19:00:14.193Z,97.46
2022-10-18T19:02:44.741Z,99.31
2022-10-18T19:05:16.628Z,97.22
2022-10-18T19:07:46.075Z,98.33
2022-10-18T19:10:15.475Z,99.23
2022-10-18T19:12:45.058Z,98.50
2022-10-18T19:15:14.398Z,100.00
2022-10-18T19:17:43.776Z,99.40
2022-10-18T19:20:17.885Z,97.47
2022-10-18T19:22:47.528Z,98.58
2022-10-18T19:25:16.858Z,99.41
2022-10-18T19:27:48.134Z,96.22
2022-10-18T19:30:17.750Z,98.51
2022-10-18T19:32:46.904Z,100.00
2022-10-18T19:35:17.842Z,99.04
2022-10-18T19:37:47.403Z,100.00
2022-10-18T19:40:16.872Z,99.23
2022-10-18T19:42:46.228Z,99.97
2022-10-18T19:45:16.207Z,98.80
2022-10-18T19:47:46.952Z,99.34
2022-10-18T19:50:17.792Z,100.00
2022-10-18T19:52:47.147Z,99.33
2022-10-18T19:55:16.512Z,99.57
2022-10-18T19:57:46.003Z,99.92
2022-10-18T20:00:19.444Z,100.00
2022-10-18T20:02:49.114Z,100.00
2022-10-18T20:05:20.021Z,100.00
2022-10-18T20:07:50.351Z,100.00
2022-10-18T20:10:20.322Z,100.00
2022-10-18T20:12:49.321Z,100.00
2022-10-18T20:15:18.650Z,99.46
2022-10-18T20:20:23.912Z,98.93
2022-10-18T20:22:53.082Z,98.75
2022-10-18T20:25:22.320Z,100.00
2022-10-18T20:27:51.601Z,99.62
2022-10-18T20:30:21.329Z,100.00
2022-10-18T20:32:58.430Z,100.00
2022-10-18T20:35:29.818Z,98.70
2022-10-18T20:37:59.172Z,99.93
2022-10-18T20:40:28.364Z,97.68
2022-10-18T20:43:02.842Z,100.00
2022-10-18T20:45:33.324Z,98.56
2022-10-18T20:48:03.024Z,97.53
2022-10-18T20:50:33.915Z,98.52
2022-10-18T20:53:03.133Z,97.73
2022-10-18T20:55:32.570Z,96.71
2022-10-18T20:58:02.040Z,97.46
2022-10-18T21:00:31.722Z,97.16
2022-10-18T21:03:01.314Z,99.55
2022-10-18T21:05:32.944Z,97.92
2022-10-18T21:08:02.605Z,98.47
2022-10-18T21:10:32.787Z,97.40
2022-10-18T21:13:04.582Z,96.30
2022-10-18T21:15:34.255Z,100.00
2022-10-18T21:18:03.630Z,99.19
2022-10-18T21:20:34.262Z,99.15
2022-10-18T21:23:04.603Z,99.23
2022-10-18T21:25:34.212Z,100.00
2022-10-18T21:28:04.683Z,96.87
2022-10-18T21:30:34.220Z,99.16
2022-10-18T21:33:04.556Z,98.94
2022-10-18T21:35:41.968Z,100.00
2022-10-18T21:38:11.539Z,96.90
2022-10-18T21:40:44.721Z,99.90
2022-10-18T21:43:14.376Z,98.58
2022-10-18T21:45:43.883Z,99.14
2022-10-18T21:48:13.776Z,95.46
2022-10-18T21:50:46.482Z,96.79
2022-10-18T21:53:16.669Z,96.55
2022-10-18T21:55:46.253Z,95.53
2022-10-18T21:58:15.578Z,97.41
2022-10-18T22:00:45.378Z,95.58
2022-10-18T22:03:16.087Z,95.64
2022-10-18T22:05:47.119Z,96.13
2022-10-18T22:08:16.533Z,100.00
2022-10-18T22:10:47.142Z,97.65
2022-10-18T22:13:16.756Z,98.27
2022-10-18T22:15:46.307Z,97.90
2022-10-18T22:18:15.649Z,97.05
2022-10-18T22:20:55.734Z,97.47
2022-10-18T22:23:25.176Z,96.33
2022-10-18T22:25:54.828Z,97.44
2022-10-18T22:28:24.551Z,99.59
2022-10-18T22:30:54.030Z,98.21
2022-10-18T22:33:23.361Z,99.80
2022-10-18T22:35:54.463Z,100.00
2022-10-18T22:38:23.886Z,98.10
2022-10-18T22:40:53.306Z,97.43
2022-10-18T22:43:22.814Z,98.86
2022-10-18T22:45:52.146Z,99.50
2022-10-18T22:48:21.447Z,99.07
2022-10-18T22:50:50.959Z,96.81
2022-10-18T22:53:22.074Z,94.34
2022-10-18T22:55:51.575Z,100.00
2022-10-18T22:58:21.222Z,99.46
2022-10-18T23:00:50.765Z,99.53
2022-10-18T23:03:20.481Z,97.92
2022-10-18T23:05:49.735Z,95.69
2022-10-18T23:08:20.427Z,96.38
2022-10-18T23:10:53.535Z,98.65
2022-10-18T23:13:24.086Z,98.54
2022-10-18T23:15:53.984Z,98.75
2022-10-18T23:18:23.222Z,97.67
2022-10-18T23:20:52.751Z,100.00
2022-10-18T23:23:23.976Z,100.00
2022-10-18T23:25:55.836Z,96.94
2022-10-18T23:28:25.600Z,98.55
2022-10-18T23:30:55.135Z,100.00
2022-10-18T23:33:24.555Z,99.83
2022-10-18T23:35:54.207Z,99.25
2022-10-18T23:38:25.270Z,99.42
2022-10-18T23:40:54.663Z,100.00
2022-10-18T23:43:24.080Z,97.92
2022-10-18T23:45:55.039Z,96.88
2022-10-18T23:48:25.132Z,98.53
2022-10-18T23:50:54.839Z,100.00
2022-10-18T23:53:25.983Z,100.00
2022-10-18T23:55:57.241Z,100.00
2022-10-18T23:58:26.993Z,100.00
